CheckWX is a tool to help pilots better visualize weather data.  It is not intended as a substitute for an official pre-flight weather briefing.

21:02:47 UTC

KLMO METAR
Vance Brand Airport
Longmont, Colorado, USA
Current

8 mins ago

KLMO 232055Z AUTO 00000KT 7SM SCT021 OVC028 08/04 A3002 RMK AO2 T00750040
Observed
May-23 @ 20:55 UTC
Visibility
7 SM
Flight Rules
MVFR
Cloud Levels
  • Scattered at 2,100' AGL
  • Overcast at 2,800' AGL
Temperature
C / 46°F
Dewpoint
C / 39°F
Humidity
76%
Altimeter
30.02" Hg
Pressure
1016.62 hPa
Previous

28 mins ago

KLMO 232035Z AUTO 00000KT 7SM SCT014 SCT019 OVC026 07/04 A3002 RMK AO2 T00720038
Observed
May-23 @ 20:35 UTC
Visibility
7 SM
Flight Rules
MVFR
Cloud Levels
  • Scattered at 1,400' AGL
  • Scattered at 1,900' AGL
  • Overcast at 2,600' AGL
Temperature
C / 45°F
Dewpoint
C / 39°F
Humidity
81%
Altimeter
30.02" Hg
Pressure
1016.62 hPa
Previous

2 hours ago

KLMO 231915Z AUTO 00000KT 10SM BKN016 BKN024 OVC031 07/04 A3006 RMK AO2 T00700042
Observed
May-23 @ 19:15 UTC
Visibility
10 SM
Flight Rules
MVFR
Cloud Levels
  • Broken at 1,600' AGL
  • Broken at 2,400' AGL
  • Overcast at 3,100' AGL
Temperature
C / 45°F
Dewpoint
C / 39°F
Humidity
81%
Altimeter
30.06" Hg
Pressure
1017.92 hPa